Time;durP1;ratioP1;P1;durP2;ratioP2;P2;SDS_P1;SDS_P2;PMS_P1;PMS_P2;Temp;Humidity;BMP_temperature;BMP_pressure;BME280_temperature;BME280_humidity;BME280_pressure;Samples;Min_cycle;Max_cycle;Signal;HPM_P1;HPM_P2
2023/03/19 00:00:54;;;;;;;31.77;23.13;;;;;;;;;;5050833;28;20132;-64
2023/03/19 00:03:20;;;;;;;29.43;21.40;;;;;;;;;;5050132;28;20098;-64
2023/03/19 00:05:52;;;;;;;27.50;21.77;;;;;;;;;;5051298;28;20127;-64
2023/03/19 00:08:19;;;;;;;25.13;19.42;;;;;;;;;;5050786;28;20048;-65
2023/03/19 00:10:45;;;;;;;30.33;20.77;;;;;;;;;;5050408;28;20051;-65
2023/03/19 00:13:11;;;;;;;28.93;20.53;;;;;;;;;;5050960;28;20561;-64
2023/03/19 00:15:37;;;;;;;31.33;21.77;;;;;;;;;;5050943;28;20143;-64
2023/03/19 00:18:05;;;;;;;33.20;22.03;;;;;;;;;;5050729;28;20051;-64
2023/03/19 00:20:31;;;;;;;26.07;18.87;;;;;;;;;;5050502;28;20114;-64
2023/03/19 00:22:57;;;;;;;23.23;18.10;;;;;;;;;;5049862;28;20055;-65
2023/03/19 00:25:23;;;;;;;27.67;18.20;;;;;;;;;;5050631;28;20132;-65
2023/03/19 00:27:49;;;;;;;25.53;17.60;;;;;;;;;;5050337;28;20487;-64
2023/03/19 00:30:15;;;;;;;22.20;17.13;;;;;;;;;;5050334;28;20045;-64
2023/03/19 00:32:41;;;;;;;23.57;17.17;;;;;;;;;;5053310;28;20105;-64
2023/03/19 00:35:08;;;;;;;20.93;16.97;;;;;;;;;;5070156;28;20526;-64
2023/03/19 00:37:34;;;;;;;23.87;16.70;;;;;;;;;;5052845;28;20051;-65
2023/03/19 00:40:00;;;;;;;23.70;17.13;;;;;;;;;;5049885;28;20045;-65
2023/03/19 00:42:26;;;;;;;22.40;16.93;;;;;;;;;;5049899;28;20045;-65
2023/03/19 00:44:52;;;;;;;18.63;15.43;;;;;;;;;;5050277;28;20063;-64
2023/03/19 00:47:18;;;;;;;24.23;16.40;;;;;;;;;;5049565;28;20041;-64
2023/03/19 00:49:44;;;;;;;24.80;17.10;;;;;;;;;;5051419;28;20186;-65
2023/03/19 00:52:10;;;;;;;21.67;16.90;;;;;;;;;;5050637;28;20128;-65
2023/03/19 00:54:36;;;;;;;26.37;16.63;;;;;;;;;;5050198;28;20159;-65
2023/03/19 00:57:02;;;;;;;20.43;15.57;;;;;;;;;;5050503;28;20474;-64
2023/03/19 00:59:28;;;;;;;21.17;15.13;;;;;;;;;;5049987;28;20107;-64
2023/03/19 01:01:54;;;;;;;23.93;14.50;;;;;;;;;;5049576;28;20076;-64
2023/03/19 01:04:22;;;;;;;17.03;11.50;;;;;;;;;;5049469;28;20118;-64
2023/03/19 01:06:48;;;;;;;16.27;10.53;;;;;;;;;;5049043;28;20167;-64
2023/03/19 01:09:14;;;;;;;18.47;11.03;;;;;;;;;;5049076;28;20487;-64
2023/03/19 01:11:40;;;;;;;11.70;8.73;;;;;;;;;;5048211;28;20052;-64
2023/03/19 01:14:06;;;;;;;13.43;8.43;;;;;;;;;;5049164;28;20049;-64
2023/03/19 01:16:33;;;;;;;11.33;7.97;;;;;;;;;;5049039;28;20036;-64
2023/03/19 01:19:00;;;;;;;14.67;8.63;;;;;;;;;;5049117;28;20053;-64
2023/03/19 01:21:29;;;;;;;12.60;7.33;;;;;;;;;;5040260;28;20853;-64
2023/03/19 01:23:56;;;;;;;11.67;8.20;;;;;;;;;;5049811;28;20506;-64
2023/03/19 01:26:22;;;;;;;12.50;7.63;;;;;;;;;;5048236;28;20057;-64
2023/03/19 01:28:48;;;;;;;12.37;8.13;;;;;;;;;;5048583;28;20052;-64
2023/03/19 01:31:14;;;;;;;16.73;9.57;;;;;;;;;;5047752;28;20033;-64
2023/03/19 01:33:41;;;;;;;11.33;7.13;;;;;;;;;;5047316;28;20117;-64
2023/03/19 01:36:07;;;;;;;12.83;7.70;;;;;;;;;;5047708;28;20099;-64
2023/03/19 01:38:33;;;;;;;9.77;6.83;;;;;;;;;;5048907;28;20478;-64
2023/03/19 01:41:00;;;;;;;11.17;6.73;;;;;;;;;;5051520;28;20076;-64
2023/03/19 01:43:30;;;;;;;11.73;6.67;;;;;;;;;;5048879;28;20044;-64
2023/03/19 01:46:05;;;;;;;10.37;6.47;;;;;;;;;;5048326;28;20564;-64
2023/03/19 01:48:40;;;;;;;9.37;6.93;;;;;;;;;;5049277;28;20049;-64
2023/03/19 01:51:07;;;;;;;14.90;8.70;;;;;;;;;;5029643;28;20045;-64
2023/03/19 01:53:34;;;;;;;9.40;6.63;;;;;;;;;;5029637;28;20056;-64
2023/03/19 01:56:03;;;;;;;11.20;6.83;;;;;;;;;;5028381;28;20076;-64
2023/03/19 01:58:30;;;;;;;10.90;7.10;;;;;;;;;;5039435;28;20049;-64
2023/03/19 02:00:56;;;;;;;11.50;7.43;;;;;;;;;;5048508;28;20081;-64
2023/03/19 02:03:23;;;;;;;9.43;6.80;;;;;;;;;;5048550;28;20140;-64
2023/03/19 02:05:50;;;;;;;8.23;6.40;;;;;;;;;;5048624;28;20040;-64
2023/03/19 02:08:16;;;;;;;9.60;6.43;;;;;;;;;;5048317;28;20052;-64
2023/03/19 02:10:44;;;;;;;9.73;6.47;;;;;;;;;;5048672;28;20099;-64
2023/03/19 02:13:10;;;;;;;12.97;7.53;;;;;;;;;;5047582;28;20045;-64
2023/03/19 02:15:36;;;;;;;8.70;6.83;;;;;;;;;;5058724;28;20048;-64
2023/03/19 02:18:03;;;;;;;10.90;7.30;;;;;;;;;;5052997;28;20056;-64
2023/03/19 02:20:35;;;;;;;15.43;7.90;;;;;;;;;;5048425;28;20045;-64
2023/03/19 02:23:07;;;;;;;10.03;7.13;;;;;;;;;;5046983;28;20503;-64
2023/03/19 02:25:45;;;;;;;13.43;6.83;;;;;;;;;;5046936;28;20068;-64
2023/03/19 02:28:12;;;;;;;10.70;7.13;;;;;;;;;;5048552;28;20083;-64
2023/03/19 02:30:38;;;;;;;11.53;6.70;;;;;;;;;;5048340;28;20045;-64
2023/03/19 02:33:05;;;;;;;10.93;6.37;;;;;;;;;;5048299;28;20049;-64
2023/03/19 02:35:32;;;;;;;12.60;7.90;;;;;;;;;;5047652;28;20087;-64
2023/03/19 02:38:00;;;;;;;10.07;6.27;;;;;;;;;;5047585;28;20040;-64
2023/03/19 02:40:28;;;;;;;13.20;7.23;;;;;;;;;;5047977;28;20041;-64
2023/03/19 02:42:54;;;;;;;16.97;7.67;;;;;;;;;;5046807;28;20045;-64
2023/03/19 02:45:20;;;;;;;11.27;7.43;;;;;;;;;;5047200;28;20041;-64
2023/03/19 02:47:46;;;;;;;7.63;5.53;;;;;;;;;;5047847;28;20052;-64
2023/03/19 02:50:12;;;;;;;9.33;6.23;;;;;;;;;;5048150;28;20746;-63
2023/03/19 02:52:39;;;;;;;11.87;7.50;;;;;;;;;;5048288;28;20051;-64
2023/03/19 02:55:06;;;;;;;8.27;6.60;;;;;;;;;;5048611;28;20052;-64
2023/03/19 02:57:32;;;;;;;9.30;6.13;;;;;;;;;;5048556;28;20098;-64
2023/03/19 02:59:58;;;;;;;10.37;5.37;;;;;;;;;;5048790;28;20049;-64
2023/03/19 03:02:25;;;;;;;9.70;5.73;;;;;;;;;;5047683;28;20040;-63
2023/03/19 03:04:51;;;;;;;9.50;5.70;;;;;;;;;;5050311;28;20048;-63
2023/03/19 03:07:17;;;;;;;11.13;5.83;;;;;;;;;;5052461;28;20410;-64
2023/03/19 03:09:43;;;;;;;8.07;6.27;;;;;;;;;;5051700;28;20099;-64
2023/03/19 03:12:09;;;;;;;8.17;6.30;;;;;;;;;;5051879;28;20098;-64
2023/03/19 03:14:35;;;;;;;7.83;6.07;;;;;;;;;;5050690;28;20045;-63
2023/03/19 03:17:01;;;;;;;9.37;6.80;;;;;;;;;;5051504;28;20087;-64
2023/03/19 03:19:27;;;;;;;9.17;6.47;;;;;;;;;;5051779;28;20530;-64
2023/03/19 03:21:53;;;;;;;10.07;6.70;;;;;;;;;;5051960;28;20081;-64
2023/03/19 03:24:20;;;;;;;11.83;6.43;;;;;;;;;;5067508;28;20047;-64
2023/03/19 03:26:46;;;;;;;10.13;6.37;;;;;;;;;;5063729;28;20392;-64
2023/03/19 03:29:12;;;;;;;9.13;6.70;;;;;;;;;;5051056;28;20123;-63
2023/03/19 03:31:38;;;;;;;9.10;6.37;;;;;;;;;;5050117;28;20037;-64
2023/03/19 03:34:04;;;;;;;10.10;7.27;;;;;;;;;;5034293;28;20068;-64
2023/03/19 03:36:30;;;;;;;9.53;6.90;;;;;;;;;;5049021;28;20045;-63
2023/03/19 03:38:56;;;;;;;15.60;7.77;;;;;;;;;;5045943;28;20053;-64
2023/03/19 03:41:22;;;;;;;8.17;6.73;;;;;;;;;;5039381;28;20037;-64
2023/03/19 03:43:48;;;;;;;9.83;7.63;;;;;;;;;;5050804;28;20546;-64
2023/03/19 03:46:14;;;;;;;14.07;7.87;;;;;;;;;;5051242;28;20045;-64
2023/03/19 03:48:40;;;;;;;11.30;7.73;;;;;;;;;;5052212;28;20076;-64
2023/03/19 03:51:06;;;;;;;9.77;6.93;;;;;;;;;;5051491;28;20491;-63
2023/03/19 03:53:32;;;;;;;9.03;6.73;;;;;;;;;;5051568;28;20048;-64
2023/03/19 03:55:58;;;;;;;9.50;6.80;;;;;;;;;;5049990;28;20053;-64
2023/03/19 03:58:24;;;;;;;11.00;7.93;;;;;;;;;;5051449;28;20056;-64
2023/03/19 04:00:51;;;;;;;11.97;7.07;;;;;;;;;;5050397;28;20098;-64
2023/03/19 04:03:18;;;;;;;7.63;6.37;;;;;;;;;;5051193;28;20068;-64
2023/03/19 04:05:44;;;;;;;9.30;6.90;;;;;;;;;;5050960;28;20045;-64
2023/03/19 04:08:11;;;;;;;10.03;7.17;;;;;;;;;;5050843;28;20056;-64
2023/03/19 04:10:41;;;;;;;13.67;8.07;;;;;;;;;;5050539;28;20041;-64
2023/03/19 04:13:07;;;;;;;12.67;7.43;;;;;;;;;;5051131;28;20091;-64
2023/03/19 04:15:33;;;;;;;11.07;8.00;;;;;;;;;;5048750;28;20053;-64
2023/03/19 04:17:59;;;;;;;9.90;6.70;;;;;;;;;;5051151;28;20073;-64
2023/03/19 04:20:26;;;;;;;10.23;7.87;;;;;;;;;;5050745;28;20083;-64
2023/03/19 04:22:52;;;;;;;8.47;6.43;;;;;;;;;;5050567;28;20535;-64
2023/03/19 04:25:18;;;;;;;8.73;6.87;;;;;;;;;;5050491;28;20048;-64
2023/03/19 04:27:44;;;;;;;14.83;8.30;;;;;;;;;;5050409;28;20499;-64
2023/03/19 04:30:11;;;;;;;10.93;7.33;;;;;;;;;;5049838;28;20052;-64
2023/03/19 04:32:37;;;;;;;9.83;6.90;;;;;;;;;;5052818;28;20040;-64
2023/03/19 04:35:03;;;;;;;13.60;7.93;;;;;;;;;;5050642;28;20131;-63
2023/03/19 04:37:30;;;;;;;12.87;7.50;;;;;;;;;;5050534;28;20041;-64
2023/03/19 04:39:56;;;;;;;12.53;8.03;;;;;;;;;;5049487;28;20410;-63
2023/03/19 04:42:22;;;;;;;13.80;8.10;;;;;;;;;;5049357;28;20041;-64
2023/03/19 04:44:48;;;;;;;13.20;7.70;;;;;;;;;;5049031;28;20068;-64
2023/03/19 04:47:14;;;;;;;11.50;7.90;;;;;;;;;;5047346;28;20091;-64
2023/03/19 04:49:41;;;;;;;10.10;7.70;;;;;;;;;;5069905;28;20446;-63
2023/03/19 04:52:08;;;;;;;10.60;7.70;;;;;;;;;;5070931;28;20120;-63
2023/03/19 04:54:34;;;;;;;12.60;8.20;;;;;;;;;;5069741;28;20101;-65
2023/03/19 04:57:00;;;;;;;13.83;8.23;;;;;;;;;;5070919;28;20045;-63
2023/03/19 04:59:26;;;;;;;12.83;8.37;;;;;;;;;;5054023;28;20049;-64
2023/03/19 05:01:52;;;;;;;12.27;8.27;;;;;;;;;;5049866;28;20053;-64
2023/03/19 05:04:18;;;;;;;12.93;9.70;;;;;;;;;;5049903;28;20395;-64
2023/03/19 05:06:44;;;;;;;12.77;9.77;;;;;;;;;;5050282;28;20040;-64
2023/03/19 05:09:10;;;;;;;18.00;10.80;;;;;;;;;;5050178;28;20045;-63
2023/03/19 05:11:36;;;;;;;15.37;9.80;;;;;;;;;;5049192;28;20044;-64
2023/03/19 05:14:03;;;;;;;14.97;9.60;;;;;;;;;;5049002;28;20134;-64
2023/03/19 05:16:29;;;;;;;15.57;10.33;;;;;;;;;;5049630;28;20056;-63
2023/03/19 05:18:55;;;;;;;19.37;11.20;;;;;;;;;;5049822;28;20047;-64
2023/03/19 05:21:21;;;;;;;15.30;11.13;;;;;;;;;;5049877;28;20222;-64
2023/03/19 05:23:51;;;;;;;18.57;12.27;;;;;;;;;;5069808;28;20127;-64
2023/03/19 05:26:17;;;;;;;21.87;11.47;;;;;;;;;;5058448;28;20049;-64
2023/03/19 05:28:43;;;;;;;20.60;12.13;;;;;;;;;;5049172;28;20060;-64
2023/03/19 05:31:09;;;;;;;19.77;11.87;;;;;;;;;;5049046;28;20045;-64
2023/03/19 05:33:36;;;;;;;19.23;11.80;;;;;;;;;;5049520;28;20427;-64
2023/03/19 05:36:02;;;;;;;18.20;12.43;;;;;;;;;;5049123;28;20136;-63
2023/03/19 05:38:28;;;;;;;23.40;13.33;;;;;;;;;;5050027;28;20174;-64
2023/03/19 05:40:54;;;;;;;20.00;13.83;;;;;;;;;;5049203;28;20052;-64
2023/03/19 05:43:20;;;;;;;27.83;16.63;;;;;;;;;;5048675;28;20084;-64
2023/03/19 05:45:50;;;;;;;22.97;15.40;;;;;;;;;;5048650;28;20091;-64
2023/03/19 05:48:16;;;;;;;22.83;14.27;;;;;;;;;;5048549;28;20157;-64
2023/03/19 05:50:42;;;;;;;24.33;14.27;;;;;;;;;;5047619;28;20059;-63
2023/03/19 05:53:08;;;;;;;25.73;15.63;;;;;;;;;;5048128;28;20041;-64
2023/03/19 05:55:34;;;;;;;26.57;15.67;;;;;;;;;;5047912;28;20076;-64
2023/03/19 05:58:00;;;;;;;25.63;15.13;;;;;;;;;;5046445;28;20091;-64
2023/03/19 06:00:26;;;;;;;24.80;15.10;;;;;;;;;;5047586;28;20072;-64
2023/03/19 06:02:53;;;;;;;26.90;17.37;;;;;;;;;;5046326;28;20049;-64
2023/03/19 06:05:20;;;;;;;30.40;17.50;;;;;;;;;;5048528;28;20088;-64
2023/03/19 06:07:46;;;;;;;34.07;18.13;;;;;;;;;;5048216;28;20040;-64
2023/03/19 06:10:12;;;;;;;43.53;20.27;;;;;;;;;;5048249;28;20041;-64
2023/03/19 06:12:38;;;;;;;29.00;18.20;;;;;;;;;;5049074;28;20518;-63
2023/03/19 06:15:05;;;;;;;31.07;19.73;;;;;;;;;;5047978;28;20074;-64
2023/03/19 06:17:31;;;;;;;30.70;18.83;;;;;;;;;;5048142;28;20045;-64
2023/03/19 06:19:57;;;;;;;34.20;19.97;;;;;;;;;;5048278;28;20423;-63
2023/03/19 06:22:23;;;;;;;36.57;19.60;;;;;;;;;;5049020;28;20053;-64
2023/03/19 06:24:49;;;;;;;35.00;19.50;;;;;;;;;;5047662;28;20560;-63
2023/03/19 06:27:15;;;;;;;37.40;21.47;;;;;;;;;;5039199;28;20537;-64
2023/03/19 06:29:41;;;;;;;43.13;22.27;;;;;;;;;;5047677;28;20096;-64
2023/03/19 06:32:08;;;;;;;36.70;21.20;;;;;;;;;;5029345;28;20083;-63
2023/03/19 06:34:34;;;;;;;38.87;21.10;;;;;;;;;;5039914;28;20041;-63
2023/03/19 06:37:00;;;;;;;41.17;21.80;;;;;;;;;;5033350;28;20560;-63
2023/03/19 06:39:27;;;;;;;38.03;20.60;;;;;;;;;;5045503;28;20049;-63
2023/03/19 06:41:53;;;;;;;51.40;23.70;;;;;;;;;;5047776;28;20059;-64
2023/03/19 06:44:19;;;;;;;45.37;22.17;;;;;;;;;;5063391;28;20385;-64
2023/03/19 06:46:45;;;;;;;43.63;22.80;;;;;;;;;;5039407;28;20640;-63
2023/03/19 06:49:11;;;;;;;47.63;23.43;;;;;;;;;;5038777;28;20484;-64
2023/03/19 06:51:37;;;;;;;41.57;22.30;;;;;;;;;;5037442;28;20477;-65
2023/03/19 06:54:03;;;;;;;43.43;22.03;;;;;;;;;;5037052;28;20598;-64
2023/03/19 06:56:29;;;;;;;46.37;22.70;;;;;;;;;;5038363;28;20399;-65
2023/03/19 06:58:55;;;;;;;61.73;27.50;;;;;;;;;;5036240;28;20056;-64
2023/03/19 07:01:21;;;;;;;42.17;22.60;;;;;;;;;;5041813;28;20045;-64
2023/03/19 07:03:48;;;;;;;35.00;21.43;;;;;;;;;;5047377;28;20411;-64
2023/03/19 07:06:14;;;;;;;37.13;21.63;;;;;;;;;;5047590;28;20045;-64
2023/03/19 07:08:44;;;;;;;35.53;21.50;;;;;;;;;;5046975;28;20048;-64
2023/03/19 07:11:11;;;;;;;41.90;22.20;;;;;;;;;;5047722;28;20052;-64
2023/03/19 07:13:37;;;;;;;36.47;21.27;;;;;;;;;;5047918;28;20045;-64
2023/03/19 07:16:03;;;;;;;35.17;20.43;;;;;;;;;;5046730;28;20044;-63
2023/03/19 07:18:29;;;;;;;38.70;23.00;;;;;;;;;;5045279;28;20044;-64
2023/03/19 07:20:55;;;;;;;44.20;25.10;;;;;;;;;;5040041;28;20402;-64
2023/03/19 07:23:21;;;;;;;42.37;24.77;;;;;;;;;;5037571;28;20041;-64
2023/03/19 07:25:47;;;;;;;34.43;21.97;;;;;;;;;;5036945;28;20506;-64
2023/03/19 07:28:14;;;;;;;41.20;23.53;;;;;;;;;;5037800;28;20049;-64
2023/03/19 07:30:40;;;;;;;44.43;24.20;;;;;;;;;;5039423;28;20129;-64
2023/03/19 07:33:06;;;;;;;40.20;24.30;;;;;;;;;;5042985;28;20037;-64
2023/03/19 07:35:32;;;;;;;34.67;22.20;;;;;;;;;;5041117;28;20497;-65
2023/03/19 07:37:59;;;;;;;41.27;24.30;;;;;;;;;;5042220;28;20045;-64
2023/03/19 07:40:25;;;;;;;36.90;22.77;;;;;;;;;;5041863;28;20084;-64
2023/03/19 07:42:52;;;;;;;33.90;22.60;;;;;;;;;;5038269;28;20049;-64
2023/03/19 07:45:18;;;;;;;29.80;20.17;;;;;;;;;;5040357;28;20146;-64
2023/03/19 07:47:44;;;;;;;29.47;20.07;;;;;;;;;;5034779;28;20107;-63
2023/03/19 07:50:10;;;;;;;42.33;21.93;;;;;;;;;;5044601;28;20131;-64
2023/03/19 07:52:36;;;;;;;36.37;21.63;;;;;;;;;;5046976;28;20124;-65
2023/03/19 07:55:03;;;;;;;27.97;19.77;;;;;;;;;;5049640;28;20045;-63
2023/03/19 07:57:29;;;;;;;34.90;20.50;;;;;;;;;;5047528;28;20040;-63
2023/03/19 07:59:55;;;;;;;31.13;20.50;;;;;;;;;;5048382;28;20506;-63
2023/03/19 08:02:21;;;;;;;29.57;19.33;;;;;;;;;;5054159;28;20574;-63
2023/03/19 08:04:47;;;;;;;32.23;20.13;;;;;;;;;;5051301;28;20195;-63
2023/03/19 08:07:14;;;;;;;26.63;17.50;;;;;;;;;;5047436;28;20124;-63
2023/03/19 08:09:40;;;;;;;23.53;16.50;;;;;;;;;;5041621;28;20075;-63
2023/03/19 08:12:07;;;;;;;28.10;17.90;;;;;;;;;;5040125;28;20038;-63
2023/03/19 08:14:33;;;;;;;23.47;17.53;;;;;;;;;;5043503;28;20080;-63
2023/03/19 08:17:00;;;;;;;24.33;16.30;;;;;;;;;;5055657;28;20131;-63
2023/03/19 08:19:26;;;;;;;21.97;16.07;;;;;;;;;;5045370;28;20844;-63
2023/03/19 08:21:52;;;;;;;22.53;15.67;;;;;;;;;;5037273;28;20033;-63
2023/03/19 08:24:18;;;;;;;16.43;11.93;;;;;;;;;;5040837;28;20491;-63
2023/03/19 08:26:45;;;;;;;18.30;12.60;;;;;;;;;;5038714;28;20124;-63
2023/03/19 08:29:11;;;;;;;23.57;15.13;;;;;;;;;;5039085;28;20801;-64
2023/03/19 08:31:37;;;;;;;14.17;12.20;;;;;;;;;;5044834;28;20136;-63
2023/03/19 08:34:03;;;;;;;15.57;10.97;;;;;;;;;;5042254;28;20064;-63
2023/03/19 08:36:30;;;;;;;14.53;11.57;;;;;;;;;;5050466;28;20216;-63
2023/03/19 08:38:57;;;;;;;11.77;10.30;;;;;;;;;;5048555;28;20033;-63
2023/03/19 08:41:23;;;;;;;15.87;12.20;;;;;;;;;;5033385;28;20053;-63
2023/03/19 08:43:49;;;;;;;14.40;12.10;;;;;;;;;;5054652;28;20067;-63
2023/03/19 08:46:16;;;;;;;16.77;12.30;;;;;;;;;;5048631;28;20045;-63
2023/03/19 08:48:42;;;;;;;20.03;13.83;;;;;;;;;;5036414;28;20508;-63
2023/03/19 08:51:08;;;;;;;17.00;12.83;;;;;;;;;;5050477;28;20053;-63
2023/03/19 08:53:35;;;;;;;17.00;12.00;;;;;;;;;;5051450;28;20116;-63
2023/03/19 08:56:02;;;;;;;17.40;12.20;;;;;;;;;;5050252;28;20045;-63
2023/03/19 08:58:29;;;;;;;15.17;11.80;;;;;;;;;;5049287;28;20045;-63
2023/03/19 09:01:02;;;;;;;17.83;12.97;;;;;;;;;;5053127;28;20071;-63
2023/03/19 09:03:28;;;;;;;;;;;;;;;;;;5057526;28;20052;-63
2023/03/19 09:05:57;;;;;;;17.20;13.67;;;;;;;;;;5048077;28;19920;-63
2023/03/19 09:08:23;;;;;;;18.37;13.27;;;;;;;;;;5049425;28;20041;-63
2023/03/19 09:10:49;;;;;;;23.33;14.43;;;;;;;;;;5050753;28;20133;-63
2023/03/19 09:13:15;;;;;;;18.13;13.87;;;;;;;;;;5050451;28;20497;-62
2023/03/19 09:15:41;;;;;;;15.50;12.80;;;;;;;;;;5049770;28;20077;-63
2023/03/19 09:18:07;;;;;;;13.93;11.97;;;;;;;;;;5041083;28;20045;-64
2023/03/19 09:20:34;;;;;;;14.70;11.53;;;;;;;;;;5037969;28;20044;-63
2023/03/19 09:23:00;;;;;;;15.43;12.50;;;;;;;;;;5041322;28;20083;-63
2023/03/19 09:25:26;;;;;;;14.40;11.90;;;;;;;;;;5049864;28;20080;-64
2023/03/19 09:27:52;;;;;;;13.80;11.57;;;;;;;;;;5049852;28;20049;-63
2023/03/19 09:30:18;;;;;;;16.90;12.50;;;;;;;;;;5049930;28;20044;-62
2023/03/19 09:32:44;;;;;;;16.60;13.13;;;;;;;;;;5050058;28;20045;-62
2023/03/19 09:35:10;;;;;;;17.83;13.37;;;;;;;;;;5050278;28;20514;-62
2023/03/19 09:37:36;;;;;;;17.77;14.37;;;;;;;;;;5049449;28;20051;-63
2023/03/19 09:40:04;;;;;;;15.03;12.53;;;;;;;;;;5044638;28;20128;-65
2023/03/19 09:42:49;;;;;;;17.87;11.93;;;;;;;;;;5041148;28;20042;-63
2023/03/19 09:45:16;;;;;;;12.97;11.23;;;;;;;;;;5045500;28;20859;-64
2023/03/19 09:47:44;;;;;;;18.73;13.60;;;;;;;;;;5041096;28;20053;-64
2023/03/19 09:50:10;;;;;;;16.57;13.70;;;;;;;;;;5038433;28;20041;-64
2023/03/19 09:52:48;;;;;;;16.17;13.13;;;;;;;;;;5043833;28;20045;-63
2023/03/19 09:55:23;;;;;;;17.43;13.33;;;;;;;;;;5050159;28;20041;-63
2023/03/19 09:57:50;;;;;;;17.83;14.37;;;;;;;;;;5048019;28;20091;-63
2023/03/19 10:00:19;;;;;;;17.93;15.07;;;;;;;;;;5038890;28;20086;-64
2023/03/19 10:02:45;;;;;;;15.83;13.27;;;;;;;;;;5037728;28;20049;-64
2023/03/19 10:05:26;;;;;;;16.73;13.23;;;;;;;;;;5037449;28;20080;-63
2023/03/19 10:08:11;;;;;;;15.67;13.30;;;;;;;;;;5041098;28;20423;-64
2023/03/19 10:10:52;;;;;;;16.47;12.40;;;;;;;;;;5043992;28;20474;-64
2023/03/19 10:13:29;;;;;;;15.07;12.07;;;;;;;;;;5040049;28;20048;-63
2023/03/19 10:15:55;;;;;;;11.83;10.50;;;;;;;;;;5041053;28;20887;-63
2023/03/19 10:18:25;;;;;;;17.77;12.27;;;;;;;;;;5037274;28;20462;-63
2023/03/19 10:20:51;;;;;;;15.73;13.13;;;;;;;;;;5038532;28;20064;-63
2023/03/19 10:23:36;;;;;;;14.03;11.37;;;;;;;;;;5038192;28;20395;-63
2023/03/19 10:26:04;;;;;;;14.60;11.53;;;;;;;;;;5035389;28;20052;-64
2023/03/19 10:28:30;;;;;;;12.30;10.23;;;;;;;;;;5038898;28;20037;-64
2023/03/19 10:31:15;;;;;;;15.80;11.90;;;;;;;;;;5039393;28;20069;-64
2023/03/19 10:33:44;;;;;;;15.70;11.30;;;;;;;;;;5037041;28;20044;-64
2023/03/19 10:36:11;;;;;;;13.40;10.47;;;;;;;;;;5037068;28;20187;-64
2023/03/19 10:38:42;;;;;;;11.60;9.30;;;;;;;;;;5036476;28;20037;-64
2023/03/19 10:41:24;;;;;;;13.60;11.20;;;;;;;;;;5032674;28;21309;-63
2023/03/19 10:43:59;;;;;;;11.83;10.27;;;;;;;;;;5042096;28;20044;-63
2023/03/19 10:46:25;;;;;;;12.17;9.80;;;;;;;;;;5041209;28;20461;-63
2023/03/19 10:48:51;;;;;;;11.40;9.13;;;;;;;;;;5040488;28;20037;-64
2023/03/19 10:51:25;;;;;;;11.63;9.77;;;;;;;;;;5030161;28;20049;-63
2023/03/19 10:53:55;;;;;;;15.03;10.43;;;;;;;;;;5037570;28;20038;-63
2023/03/19 10:56:26;;;;;;;13.23;11.00;;;;;;;;;;5036076;28;20050;-63
2023/03/19 10:59:03;;;;;;;13.33;10.07;;;;;;;;;;5038313;28;20449;-63
2023/03/19 11:01:37;;;;;;;9.70;8.70;;;;;;;;;;5044838;28;20098;-63
2023/03/19 11:04:20;;;;;;;12.47;11.07;;;;;;;;;;5039720;28;20063;-63
2023/03/19 11:06:50;;;;;;;12.05;8.70;;;;;;;;;;5039496;28;20124;-63
2023/03/19 11:09:37;;;;;;;13.47;9.77;;;;;;;;;;5037806;28;20037;-63
2023/03/19 11:12:08;;;;;;;12.90;9.80;;;;;;;;;;5037153;28;20106;-63
2023/03/19 11:14:38;;;;;;;10.30;8.40;;;;;;;;;;5037135;28;20049;-63
2023/03/19 11:17:13;;;;;;;11.47;9.20;;;;;;;;;;5035989;28;20535;-63
2023/03/19 11:19:41;;;;;;;11.00;9.60;;;;;;;;;;5037436;28;20045;-63
2023/03/19 11:22:08;;;;;;;10.97;9.30;;;;;;;;;;5042243;28;20077;-62
2023/03/19 11:24:38;;;;;;;11.70;10.10;;;;;;;;;;5034593;28;20080;-62
2023/03/19 11:27:04;;;;;;;12.07;9.87;;;;;;;;;;5039528;28;20104;-62
2023/03/19 11:29:30;;;;;;;10.93;9.23;;;;;;;;;;5040639;28;20076;-62
2023/03/19 11:32:05;;;;;;;10.70;9.30;;;;;;;;;;5042014;28;20418;-62
2023/03/19 11:34:42;;;;;;;11.10;8.47;;;;;;;;;;5042059;28;20383;-62
2023/03/19 11:37:08;;;;;;;10.73;9.07;;;;;;;;;;5043252;28;20411;-62
2023/03/19 11:39:49;;;;;;;11.30;8.63;;;;;;;;;;5039927;28;20040;-62
2023/03/19 11:42:35;;;;;;;10.63;8.80;;;;;;;;;;5039906;28;20174;-62
2023/03/19 11:45:04;;;;;;;11.00;8.60;;;;;;;;;;5043373;28;20080;-62
2023/03/19 11:47:50;;;;;;;11.97;8.83;;;;;;;;;;5040129;28;20038;-61
2023/03/19 11:50:45;;;;;;;13.13;9.10;;;;;;;;;;5048906;28;20438;-61
2023/03/19 11:53:23;;;;;;;10.00;8.50;;;;;;;;;;5051164;28;20446;-61
2023/03/19 11:55:55;;;;;;;10.97;8.87;;;;;;;;;;5050681;28;20154;-61
2023/03/19 11:58:33;;;;;;;13.67;9.23;;;;;;;;;;5051457;28;20057;-61
2023/03/19 12:01:17;;;;;;;12.00;9.53;;;;;;;;;;5050680;28;20116;-61
2023/03/19 12:03:52;;;;;;;10.53;8.97;;;;;;;;;;5051085;28;20107;-61
2023/03/19 12:06:24;;;;;;;13.07;10.73;;;;;;;;;;5050076;28;20057;-61
2023/03/19 12:08:53;;;;;;;13.50;10.27;;;;;;;;;;5050416;28;20057;-60
2023/03/19 12:11:19;;;;;;;10.97;9.50;;;;;;;;;;5048156;28;20053;-60
2023/03/19 12:13:54;;;;;;;14.50;11.10;;;;;;;;;;5050962;28;20122;-61
2023/03/19 12:16:29;;;;;;;12.23;9.63;;;;;;;;;;5051224;28;20128;-61
2023/03/19 12:19:10;;;;;;;11.73;10.53;;;;;;;;;;5049599;28;20711;-61
2023/03/19 12:21:43;;;;;;;10.03;9.03;;;;;;;;;;5048738;28;20132;-61
2023/03/19 12:24:10;;;;;;;;;;;;;;;;;;5049379;28;20087;-61
2023/03/19 12:26:49;;;;;;;13.70;10.50;;;;;;;;;;5048200;28;20318;-61
2023/03/19 12:29:18;;;;;;;12.27;10.17;;;;;;;;;;5048343;28;20052;-61
2023/03/19 12:31:44;;;;;;;9.53;8.27;;;;;;;;;;5048857;28;20410;-61
2023/03/19 12:34:22;;;;;;;10.97;9.37;;;;;;;;;;5047844;28;20411;-61
2023/03/19 12:37:07;;;;;;;11.17;9.10;;;;;;;;;;5046948;28;20110;-61
2023/03/19 12:39:36;;;;;;;11.40;9.27;;;;;;;;;;5048458;28;20056;-61
2023/03/19 12:42:04;;;;;;;10.23;8.53;;;;;;;;;;5049267;28;20049;-61
2023/03/19 12:44:39;;;;;;;11.93;9.80;;;;;;;;;;5048964;28;20783;-61
2023/03/19 12:47:07;;;;;;;9.93;8.90;;;;;;;;;;5048995;28;20037;-61
2023/03/19 12:49:39;;;;;;;10.50;9.03;;;;;;;;;;5049924;28;20055;-61
2023/03/19 12:52:20;;;;;;;10.80;8.87;;;;;;;;;;5050343;28;20053;-61
2023/03/19 12:55:21;;;;;;;10.20;9.20;;;;;;;;;;5050476;28;20287;-60
2023/03/19 12:57:53;;;;;;;10.23;8.83;;;;;;;;;;5047644;28;20525;-60
2023/03/19 13:00:25;;;;;;;11.07;9.63;;;;;;;;;;5049706;28;20065;-60
2023/03/19 13:02:51;;;;;;;11.80;10.33;;;;;;;;;;5050096;28;20067;-60
2023/03/19 13:05:22;;;;;;;12.70;10.50;;;;;;;;;;5049934;28;20106;-60
2023/03/19 13:07:55;;;;;;;11.57;10.37;;;;;;;;;;5049973;28;20451;-60
2023/03/19 13:10:22;;;;;;;11.30;9.73;;;;;;;;;;5050124;28;20060;-60
2023/03/19 13:12:49;;;;;;;12.00;10.33;;;;;;;;;;5049836;28;20583;-60
2023/03/19 13:15:19;;;;;;;11.97;9.40;;;;;;;;;;5050168;28;20172;-60
2023/03/19 13:17:50;;;;;;;12.33;9.70;;;;;;;;;;5048920;28;20041;-61
2023/03/19 13:20:35;;;;;;;11.45;10.00;;;;;;;;;;5049999;28;20049;-60
2023/03/19 13:23:03;;;;;;;13.40;10.77;;;;;;;;;;5049825;28;20048;-60
2023/03/19 13:25:35;;;;;;;12.80;11.50;;;;;;;;;;5049475;28;20732;-60
2023/03/19 13:28:01;;;;;;;11.73;10.53;;;;;;;;;;5049426;28;20049;-60
2023/03/19 13:30:28;;;;;;;11.83;10.60;;;;;;;;;;5049587;28;20044;-60
2023/03/19 13:33:02;;;;;;;13.40;12.00;;;;;;;;;;5049636;28;20048;-60
2023/03/19 13:35:39;;;;;;;14.87;13.27;;;;;;;;;;5048749;28;20151;-60
2023/03/19 13:38:31;;;;;;;15.03;12.30;;;;;;;;;;5049263;28;20487;-60
2023/03/19 13:40:59;;;;;;;13.37;12.07;;;;;;;;;;5040973;28;20048;-60
2023/03/19 13:43:28;;;;;;;14.10;12.23;;;;;;;;;;5049004;28;20291;-60
2023/03/19 13:46:03;;;;;;;15.00;13.40;;;;;;;;;;5049325;28;20530;-61
2023/03/19 13:48:29;;;;;;;14.17;12.20;;;;;;;;;;5048784;28;20524;-60
2023/03/19 13:51:00;;;;;;;12.27;10.97;;;;;;;;;;5049380;28;20503;-60
2023/03/19 13:53:30;;;;;;;13.63;12.23;;;;;;;;;;5049274;28;20049;-61
2023/03/19 13:55:59;;;;;;;13.07;11.77;;;;;;;;;;5049097;28;20049;-60
2023/03/19 14:01:26;;;;;;;12.97;11.67;;;;;;;;;;5049164;28;20475;-60
2023/03/19 14:04:00;;;;;;;12.00;10.73;;;;;;;;;;5049142;28;20048;-60
2023/03/19 14:06:35;;;;;;;13.47;11.30;;;;;;;;;;5048983;28;20041;-60
2023/03/19 14:09:02;;;;;;;12.93;11.47;;;;;;;;;;5048986;28;20057;-61
2023/03/19 14:11:31;;;;;;;15.83;14.23;;;;;;;;;;5048683;28;20037;-60
2023/03/19 14:14:00;;;;;;;15.53;12.53;;;;;;;;;;5048262;28;20049;-60
2023/03/19 14:16:30;;;;;;;15.13;13.60;;;;;;;;;;5048591;28;20140;-60
2023/03/19 14:18:57;;;;;;;15.87;14.17;;;;;;;;;;5049020;28;20045;-60
2023/03/19 14:21:32;;;;;;;14.23;12.73;;;;;;;;;;5048402;28;20060;-60
2023/03/19 14:24:18;;;;;;;16.07;13.23;;;;;;;;;;5048759;28;20095;-60
2023/03/19 14:26:45;;;;;;;15.27;13.40;;;;;;;;;;5047997;28;20052;-60
2023/03/19 14:29:14;;;;;;;15.67;13.70;;;;;;;;;;5048501;28;20407;-60
2023/03/19 14:31:48;;;;;;;15.53;13.23;;;;;;;;;;5048214;28;20053;-60
2023/03/19 14:34:17;;;;;;;16.57;13.77;;;;;;;;;;5048718;28;20053;-60